METAR Data
IDs: Format: Raw Decoded Include TAF

Data at: 1658 UTC 03 Jul 2020

METAR for:KVUJ (Albemarle/Stanly Cnt, NC, US)
Text:KVUJ 031635Z AUTO 33003KT 10SM SCT050 31/18 A3003 RMK AO2 T03050180
Temperature: 30.5°C ( 87°F)
Dewpoint: 18.0°C ( 64°F) [RH = 47%]
Pressure (altimeter):30.03 inches Hg (1017.0 mb)
Winds:from the NNW (330 degrees) at 3 MPH (3 knots; 1.5 m/s)
Visibility:10 or more sm (16+ km)
Ceiling:at least 12,000 feet AGL
Clouds: scattered clouds at 5000 feet AGL
QC Flag:automated observation with no human augmentation